Time;durP1;ratioP1;P1;durP2;ratioP2;P2;SDS_P1;SDS_P2;PMS_P1;PMS_P2;Temp;Humidity;BMP_temperature;BMP_pressure;BME280_temperature;BME280_humidity;BME280_pressure;Samples;Min_cycle;Max_cycle;Signal;HPM_P1;HPM_P2
2024/01/27 00:01:39;;;;;;;14.13;3.47;;;;;;;;;;5072293;28;20063;-82
2024/01/27 00:04:04;;;;;;;10.43;3.15;;;;;;;;;;5076822;28;20035;-81
2024/01/27 00:06:30;;;;;;;16.55;4.30;;;;;;;;;;5080251;28;20024;-82
2024/01/27 00:08:56;;;;;;;10.60;3.53;;;;;;;;;;5081832;28;20050;-81
2024/01/27 00:11:25;;;;;;;11.77;3.22;;;;;;;;;;5082842;28;20032;-82
2024/01/27 00:13:51;;;;;;;17.00;4.40;;;;;;;;;;5071796;28;20099;-82
2024/01/27 00:16:17;;;;;;;14.20;3.55;;;;;;;;;;5071996;28;20513;-82
2024/01/27 00:18:43;;;;;;;8.60;3.60;;;;;;;;;;5070535;28;20020;-82
2024/01/27 00:21:09;;;;;;;14.60;3.80;;;;;;;;;;5072614;28;20059;-82
2024/01/27 00:23:35;;;;;;;17.55;3.53;;;;;;;;;;5070622;28;20033;-82
2024/01/27 00:26:02;;;;;;;15.15;3.40;;;;;;;;;;5070761;28;20154;-82
2024/01/27 00:28:28;;;;;;;7.57;2.92;;;;;;;;;;5070457;28;20060;-82
2024/01/27 00:30:54;;;;;;;10.82;3.70;;;;;;;;;;5071660;28;20094;-82
2024/01/27 00:33:20;;;;;;;16.45;3.65;;;;;;;;;;5071752;28;20388;-82
2024/01/27 00:35:46;;;;;;;10.98;3.13;;;;;;;;;;5071571;28;20482;-82
2024/01/27 00:38:12;;;;;;;13.10;3.70;;;;;;;;;;5071605;28;20107;-82
2024/01/27 00:40:38;;;;;;;13.70;3.42;;;;;;;;;;5071750;28;20063;-82
2024/01/27 00:43:04;;;;;;;12.77;3.33;;;;;;;;;;5071455;28;20119;-82
2024/01/27 00:45:31;;;;;;;11.10;3.63;;;;;;;;;;5080337;28;20071;-82
2024/01/27 00:47:57;;;;;;;14.18;3.53;;;;;;;;;;5091600;28;20034;-82
2024/01/27 00:50:23;;;;;;;11.75;3.72;;;;;;;;;;5091604;28;20435;-82
2024/01/27 00:52:49;;;;;;;13.77;3.90;;;;;;;;;;5091594;28;20533;-82
2024/01/27 00:55:17;;;;;;;6.85;3.65;;;;;;;;;;5091517;28;20017;-82
2024/01/27 00:57:43;;;;;;;12.77;3.70;;;;;;;;;;5091779;28;20024;-82
2024/01/27 01:00:10;;;;;;;9.27;3.20;;;;;;;;;;5092228;28;20540;-82
2024/01/27 01:02:37;;;;;;;7.72;3.80;;;;;;;;;;5091156;28;20043;-82
2024/01/27 01:05:03;;;;;;;7.85;3.38;;;;;;;;;;5091269;28;20404;-82
2024/01/27 01:07:30;;;;;;;8.48;3.00;;;;;;;;;;5091368;28;20137;-82
2024/01/27 01:09:56;;;;;;;8.57;3.20;;;;;;;;;;5082828;28;20499;-82
2024/01/27 01:12:25;;;;;;;12.13;3.72;;;;;;;;;;5069847;28;20025;-82
2024/01/27 01:14:51;;;;;;;17.88;4.28;;;;;;;;;;5070989;28;20422;-82
2024/01/27 01:17:17;;;;;;;13.85;3.72;;;;;;;;;;5069480;28;20028;-82
2024/01/27 01:19:43;;;;;;;12.10;3.33;;;;;;;;;;5071522;28;20021;-82
2024/01/27 01:22:09;;;;;;;19.77;4.13;;;;;;;;;;5070116;28;20533;-82
2024/01/27 01:24:35;;;;;;;17.00;4.22;;;;;;;;;;5069253;28;20033;-82
2024/01/27 01:27:01;;;;;;;13.48;3.40;;;;;;;;;;5070597;28;20425;-82
2024/01/27 01:29:27;;;;;;;7.55;3.05;;;;;;;;;;5070435;28;20086;-81
2024/01/27 01:31:53;;;;;;;9.75;3.28;;;;;;;;;;5069991;28;20031;-81
2024/01/27 01:34:19;;;;;;;10.18;3.08;;;;;;;;;;5070462;28;20024;-81
2024/01/27 01:36:45;;;;;;;19.58;4.05;;;;;;;;;;5070464;28;20590;-81
2024/01/27 01:39:13;;;;;;;12.43;3.20;;;;;;;;;;5069668;28;20057;-81
2024/01/27 01:41:39;;;;;;;11.65;3.08;;;;;;;;;;5069956;28;20032;-81
2024/01/27 01:44:05;;;;;;;12.52;3.08;;;;;;;;;;5070295;28;20244;-81
2024/01/27 01:46:31;;;;;;;12.88;3.33;;;;;;;;;;5069921;28;20024;-81
2024/01/27 01:48:57;;;;;;;9.77;3.05;;;;;;;;;;5070207;28;20073;-80
2024/01/27 01:51:23;;;;;;;8.88;2.95;;;;;;;;;;5070092;28;20028;-81
2024/01/27 01:53:49;;;;;;;9.38;2.70;;;;;;;;;;5070208;28;20025;-81
2024/01/27 01:56:16;;;;;;;8.38;2.67;;;;;;;;;;5070523;28;20035;-81
2024/01/27 01:58:42;;;;;;;11.93;2.80;;;;;;;;;;5070563;28;20028;-81
2024/01/27 02:01:08;;;;;;;11.35;3.22;;;;;;;;;;5068711;28;20135;-81
2024/01/27 02:03:34;;;;;;;8.02;2.92;;;;;;;;;;5069934;28;20040;-81
2024/01/27 02:06:00;;;;;;;10.57;2.92;;;;;;;;;;5077357;28;20016;-81
2024/01/27 02:08:26;;;;;;;7.35;3.00;;;;;;;;;;5090158;28;20111;-81
2024/01/27 02:10:52;;;;;;;9.57;2.80;;;;;;;;;;5090021;28;20078;-81
2024/01/27 02:13:19;;;;;;;15.10;3.58;;;;;;;;;;5090014;28;20099;-81
2024/01/27 02:15:46;;;;;;;8.98;3.05;;;;;;;;;;5090822;28;20112;-81
2024/01/27 02:18:12;;;;;;;6.93;2.63;;;;;;;;;;5090657;28;20395;-81
2024/01/27 02:20:38;;;;;;;15.93;2.90;;;;;;;;;;5089554;28;20417;-81
2024/01/27 02:23:05;;;;;;;8.45;3.28;;;;;;;;;;5081778;28;20036;-81
2024/01/27 02:25:31;;;;;;;12.95;3.20;;;;;;;;;;5069597;28;20029;-81
2024/01/27 02:27:57;;;;;;;9.40;2.53;;;;;;;;;;5069557;28;20060;-81
2024/01/27 02:30:23;;;;;;;11.70;2.95;;;;;;;;;;5068383;28;20040;-81
2024/01/27 02:32:49;;;;;;;9.93;2.67;;;;;;;;;;5072650;28;20044;-81
2024/01/27 02:35:16;;;;;;;9.05;2.65;;;;;;;;;;5073752;28;20077;-81
2024/01/27 02:37:42;;;;;;;11.20;3.28;;;;;;;;;;5086893;28;20120;-81
2024/01/27 02:40:09;;;;;;;9.85;2.50;;;;;;;;;;5088718;28;20084;-81
2024/01/27 02:42:35;;;;;;;8.32;2.72;;;;;;;;;;5089541;28;20028;-81
2024/01/27 02:45:02;;;;;;;7.35;2.67;;;;;;;;;;5089402;28;20020;-81
2024/01/27 02:47:28;;;;;;;10.88;2.80;;;;;;;;;;5089637;28;20043;-81
2024/01/27 02:49:54;;;;;;;8.65;2.90;;;;;;;;;;5077530;28;20036;-81
2024/01/27 02:52:20;;;;;;;6.82;2.33;;;;;;;;;;5069140;28;20070;-81
2024/01/27 02:54:46;;;;;;;12.15;2.58;;;;;;;;;;5070092;28;20020;-81
2024/01/27 02:57:12;;;;;;;5.50;2.10;;;;;;;;;;5068648;28;20024;-81
2024/01/27 02:59:39;;;;;;;7.38;2.40;;;;;;;;;;5069519;28;20722;-81
2024/01/27 03:02:05;;;;;;;10.77;2.85;;;;;;;;;;5069403;28;20032;-81
2024/01/27 03:04:31;;;;;;;5.97;2.55;;;;;;;;;;5074374;28;20071;-82
2024/01/27 03:06:57;;;;;;;8.63;2.58;;;;;;;;;;5074431;28;20028;-80
2024/01/27 03:09:23;;;;;;;4.72;2.47;;;;;;;;;;5079027;28;20490;-82
2024/01/27 03:11:49;;;;;;;6.35;2.67;;;;;;;;;;5073703;28;20028;-81
2024/01/27 03:14:15;;;;;;;6.60;2.55;;;;;;;;;;5069763;28;20024;-81
2024/01/27 03:16:41;;;;;;;8.43;2.58;;;;;;;;;;5068959;28;20029;-81
2024/01/27 03:19:07;;;;;;;10.02;2.53;;;;;;;;;;5068887;28;20028;-81
2024/01/27 03:21:33;;;;;;;4.75;2.40;;;;;;;;;;5068127;28;20428;-81
2024/01/27 03:23:59;;;;;;;12.07;2.83;;;;;;;;;;5068215;28;20036;-81
2024/01/27 03:26:25;;;;;;;7.15;2.42;;;;;;;;;;5067560;28;20039;-81
2024/01/27 03:28:51;;;;;;;11.45;3.13;;;;;;;;;;5068473;28;20043;-81
2024/01/27 03:31:17;;;;;;;10.15;2.90;;;;;;;;;;5069535;28;20116;-80
2024/01/27 03:33:43;;;;;;;6.13;2.60;;;;;;;;;;5068615;28;20036;-81
2024/01/27 03:36:12;;;;;;;9.73;2.72;;;;;;;;;;5070346;28;20059;-81
2024/01/27 03:38:39;;;;;;;8.63;2.35;;;;;;;;;;5072707;28;20024;-81
2024/01/27 03:41:05;;;;;;;7.97;2.47;;;;;;;;;;5072635;28;20024;-81
2024/01/27 03:43:31;;;;;;;6.90;2.72;;;;;;;;;;5072079;28;20444;-81
2024/01/27 03:45:59;;;;;;;12.82;2.47;;;;;;;;;;5072550;28;20054;-81
2024/01/27 03:48:26;;;;;;;15.68;3.10;;;;;;;;;;5072472;28;20074;-81
2024/01/27 03:50:52;;;;;;;6.20;2.33;;;;;;;;;;5075237;28;20028;-81
2024/01/27 03:53:18;;;;;;;12.10;3.00;;;;;;;;;;5073292;28;20035;-80
2024/01/27 03:55:44;;;;;;;12.57;3.08;;;;;;;;;;5072376;28;20025;-81
2024/01/27 03:58:10;;;;;;;4.80;2.45;;;;;;;;;;5072339;28;20028;-81
2024/01/27 04:00:36;;;;;;;6.55;2.90;;;;;;;;;;5072111;28;20021;-82
2024/01/27 04:03:02;;;;;;;9.10;2.40;;;;;;;;;;5071225;28;20028;-81
2024/01/27 04:05:31;;;;;;;8.68;2.55;;;;;;;;;;5072146;28;20567;-81
2024/01/27 04:07:57;;;;;;;8.40;2.50;;;;;;;;;;5072069;28;20032;-81
2024/01/27 04:10:23;;;;;;;9.07;2.15;;;;;;;;;;5072164;28;20029;-81
2024/01/27 04:12:49;;;;;;;13.95;2.45;;;;;;;;;;5072824;28;20028;-81
2024/01/27 04:15:15;;;;;;;10.35;2.78;;;;;;;;;;5070781;28;20388;-81
2024/01/27 04:17:41;;;;;;;10.95;2.95;;;;;;;;;;5071379;28;20037;-81
2024/01/27 04:20:08;;;;;;;10.00;2.53;;;;;;;;;;5071724;28;20025;-80
2024/01/27 04:22:34;;;;;;;10.15;2.42;;;;;;;;;;5071812;28;20036;-81
2024/01/27 04:25:00;;;;;;;6.13;2.08;;;;;;;;;;5071532;28;20074;-81
2024/01/27 04:27:30;;;;;;;7.57;2.33;;;;;;;;;;5071475;28;20028;-83
2024/01/27 04:29:59;;;;;;;9.63;2.67;;;;;;;;;;5070913;28;20039;-82
2024/01/27 04:32:26;;;;;;;7.68;2.33;;;;;;;;;;5071576;28;20596;-81
2024/01/27 04:34:52;;;;;;;8.32;2.60;;;;;;;;;;5071858;28;20021;-84
2024/01/27 04:37:18;;;;;;;9.05;2.45;;;;;;;;;;5071560;28;20028;-84
2024/01/27 04:39:44;;;;;;;8.05;2.22;;;;;;;;;;5071165;28;20246;-84
2024/01/27 04:42:10;;;;;;;6.28;2.50;;;;;;;;;;5071472;28;20102;-84
2024/01/27 04:44:36;;;;;;;7.03;2.65;;;;;;;;;;5071456;28;20051;-84
2024/01/27 04:47:02;;;;;;;6.60;2.50;;;;;;;;;;5070052;28;20052;-84
2024/01/27 04:49:28;;;;;;;6.30;2.25;;;;;;;;;;5071354;28;20020;-84
2024/01/27 04:51:54;;;;;;;10.05;2.63;;;;;;;;;;5072228;28;20496;-83
2024/01/27 04:54:20;;;;;;;10.95;2.92;;;;;;;;;;5071019;28;20032;-83
2024/01/27 04:56:46;;;;;;;6.40;2.80;;;;;;;;;;5069725;28;20132;-83
2024/01/27 04:59:12;;;;;;;9.77;2.40;;;;;;;;;;5070759;28;20591;-84
2024/01/27 05:01:38;;;;;;;8.25;2.30;;;;;;;;;;5070115;28;20040;-83
2024/01/27 05:04:04;;;;;;;8.02;2.65;;;;;;;;;;5070488;28;20035;-84
2024/01/27 05:06:30;;;;;;;9.20;2.60;;;;;;;;;;5071060;28;20094;-83
2024/01/27 05:08:56;;;;;;;8.35;2.92;;;;;;;;;;5071351;28;20463;-81
2024/01/27 05:11:32;;;;;;;6.15;2.80;;;;;;;;;;5071658;28;20052;-83
2024/01/27 05:13:58;;;;;;;6.20;2.53;;;;;;;;;;5070886;28;20025;-83
2024/01/27 05:16:24;;;;;;;9.90;2.30;;;;;;;;;;5071652;28;20029;-83
2024/01/27 05:18:50;;;;;;;8.88;2.67;;;;;;;;;;5070909;28;20112;-82
2024/01/27 05:21:16;;;;;;;7.18;2.50;;;;;;;;;;5070442;28;20264;-83
2024/01/27 05:23:42;;;;;;;6.43;2.50;;;;;;;;;;5070583;28;20090;-82
2024/01/27 05:26:10;;;;;;;5.57;2.30;;;;;;;;;;5070413;28;20116;-83
2024/01/27 05:28:37;;;;;;;7.30;2.42;;;;;;;;;;5070218;28;20036;-83
2024/01/27 05:31:03;;;;;;;9.20;3.15;;;;;;;;;;5070626;28;20070;-83
2024/01/27 05:33:29;;;;;;;6.40;2.50;;;;;;;;;;5070494;28;20024;-82
2024/01/27 05:35:55;;;;;;;6.65;2.08;;;;;;;;;;5070994;28;20058;-82
2024/01/27 05:38:22;;;;;;;7.70;2.63;;;;;;;;;;5070689;28;20025;-83
2024/01/27 05:40:49;;;;;;;10.20;2.70;;;;;;;;;;5070410;28;20158;-82
2024/01/27 05:43:15;;;;;;;9.63;2.22;;;;;;;;;;5070464;28;20033;-83
2024/01/27 05:45:41;;;;;;;7.30;2.33;;;;;;;;;;5070409;28;20385;-81
2024/01/27 05:48:07;;;;;;;6.38;2.55;;;;;;;;;;5070229;28;20035;-81
2024/01/27 05:50:35;;;;;;;9.40;2.45;;;;;;;;;;5070185;28;20028;-82
2024/01/27 05:53:01;;;;;;;6.47;3.03;;;;;;;;;;5069078;28;20059;-81
2024/01/27 05:55:27;;;;;;;12.65;3.20;;;;;;;;;;5070958;28;20056;-81
2024/01/27 05:57:55;;;;;;;3.97;2.33;;;;;;;;;;5070036;28;20070;-81
2024/01/27 06:00:21;;;;;;;8.80;2.40;;;;;;;;;;5070418;28;20047;-81
2024/01/27 06:02:47;;;;;;;5.40;2.00;;;;;;;;;;5075103;28;20369;-81
2024/01/27 06:05:13;;;;;;;12.48;2.40;;;;;;;;;;5075917;28;20051;-82
2024/01/27 06:07:39;;;;;;;7.15;2.47;;;;;;;;;;5077679;28;20028;-82
2024/01/27 06:10:07;;;;;;;5.88;2.10;;;;;;;;;;5073308;28;20024;-81
2024/01/27 06:12:34;;;;;;;8.38;2.70;;;;;;;;;;5084676;28;20025;-83
2024/01/27 06:15:00;;;;;;;6.25;2.47;;;;;;;;;;5069665;28;20040;-81
2024/01/27 06:17:26;;;;;;;11.55;2.33;;;;;;;;;;5070573;28;20021;-81
2024/01/27 06:19:52;;;;;;;5.90;2.38;;;;;;;;;;5069397;28;20036;-81
2024/01/27 06:22:18;;;;;;;4.32;1.98;;;;;;;;;;5069798;28;20016;-81
2024/01/27 06:24:44;;;;;;;7.60;2.17;;;;;;;;;;5068551;28;20107;-83
2024/01/27 06:27:11;;;;;;;8.23;2.63;;;;;;;;;;5068881;28;20028;-81
2024/01/27 06:29:37;;;;;;;8.65;2.22;;;;;;;;;;5073696;28;20204;-81
2024/01/27 06:32:03;;;;;;;8.02;2.63;;;;;;;;;;5072056;28;20025;-81
2024/01/27 06:34:29;;;;;;;9.50;2.33;;;;;;;;;;5070428;28;20021;-82
2024/01/27 06:36:55;;;;;;;5.63;2.05;;;;;;;;;;5069425;28;20435;-82
2024/01/27 06:39:21;;;;;;;6.53;2.20;;;;;;;;;;5073119;28;20040;-81
2024/01/27 06:41:47;;;;;;;5.75;2.10;;;;;;;;;;5083361;28;20104;-81
2024/01/27 06:44:13;;;;;;;7.78;2.15;;;;;;;;;;5067480;28;20029;-81
2024/01/27 06:46:40;;;;;;;4.00;2.17;;;;;;;;;;5069262;28;20377;-86
2024/01/27 06:49:06;;;;;;;7.45;2.30;;;;;;;;;;5070159;28;20102;-83
2024/01/27 06:51:32;;;;;;;6.47;2.00;;;;;;;;;;5089787;28;20468;-80
2024/01/27 06:53:58;;;;;;;6.95;2.42;;;;;;;;;;5089989;28;20032;-84
2024/01/27 06:56:24;;;;;;;5.57;2.00;;;;;;;;;;5088727;28;20032;-83
2024/01/27 06:58:50;;;;;;;4.82;1.70;;;;;;;;;;5089002;28;20473;-79
2024/01/27 07:01:16;;;;;;;5.22;1.90;;;;;;;;;;5088967;28;20146;-79
2024/01/27 07:03:44;;;;;;;7.43;2.13;;;;;;;;;;5089135;28;20036;-81
2024/01/27 07:06:10;;;;;;;8.00;2.08;;;;;;;;;;5069818;28;20416;-80
2024/01/27 07:08:36;;;;;;;11.40;2.03;;;;;;;;;;5068636;28;20047;-81
2024/01/27 07:11:02;;;;;;;9.43;2.30;;;;;;;;;;5068639;28;20101;-81
2024/01/27 07:13:30;;;;;;;7.82;1.75;;;;;;;;;;5069427;28;20492;-83
2024/01/27 07:15:57;;;;;;;6.45;2.00;;;;;;;;;;5067979;28;20036;-80
2024/01/27 07:18:23;;;;;;;8.93;2.08;;;;;;;;;;5067110;28;20374;-82
2024/01/27 07:20:49;;;;;;;4.88;2.20;;;;;;;;;;5067607;28;20051;-81
2024/01/27 07:23:15;;;;;;;6.10;2.30;;;;;;;;;;5067644;28;20029;-82
2024/01/27 07:25:41;;;;;;;6.00;2.13;;;;;;;;;;5066624;28;20040;-80
2024/01/27 07:28:07;;;;;;;11.25;2.30;;;;;;;;;;5069567;28;20024;-81
2024/01/27 07:30:33;;;;;;;7.35;2.17;;;;;;;;;;5068945;28;20111;-83
2024/01/27 07:32:59;;;;;;;7.38;2.28;;;;;;;;;;5065280;28;20074;-80
2024/01/27 07:35:25;;;;;;;8.52;2.83;;;;;;;;;;5067740;28;20028;-82
2024/01/27 07:37:51;;;;;;;13.02;2.55;;;;;;;;;;5067042;28;20025;-80
2024/01/27 07:40:17;;;;;;;3.05;1.90;;;;;;;;;;5068256;28;20040;-80
2024/01/27 07:42:43;;;;;;;5.25;2.05;;;;;;;;;;5067063;28;20020;-81
2024/01/27 07:45:09;;;;;;;7.40;2.40;;;;;;;;;;5066500;28;20059;-86
2024/01/27 07:47:35;;;;;;;6.97;1.75;;;;;;;;;;5068085;28;20027;-81
2024/01/27 07:50:01;;;;;;;5.88;2.13;;;;;;;;;;5069158;28;20024;-80
2024/01/27 07:52:27;;;;;;;11.10;2.72;;;;;;;;;;5066947;28;20028;-81
2024/01/27 07:54:54;;;;;;;5.53;2.08;;;;;;;;;;5068112;28;20028;-79
2024/01/27 07:57:20;;;;;;;9.05;2.10;;;;;;;;;;5067201;28;20029;-81
2024/01/27 07:59:46;;;;;;;7.43;2.35;;;;;;;;;;5067554;28;20419;-82
2024/01/27 08:02:12;;;;;;;6.20;2.35;;;;;;;;;;5068188;28;20025;-81
2024/01/27 08:04:39;;;;;;;6.82;2.40;;;;;;;;;;5065265;28;20606;-81
2024/01/27 08:07:09;;;;;;;4.13;2.08;;;;;;;;;;5059518;28;20017;-80
2024/01/27 08:09:35;;;;;;;9.00;2.03;;;;;;;;;;5068754;28;20032;-80
2024/01/27 08:12:01;;;;;;;5.13;1.80;;;;;;;;;;5068401;28;20020;-80
2024/01/27 08:14:30;;;;;;;3.30;2.00;;;;;;;;;;5067986;28;20083;-81
2024/01/27 08:16:57;;;;;;;4.07;2.03;;;;;;;;;;5067986;28;20032;-82
2024/01/27 08:19:24;;;;;;;4.57;1.77;;;;;;;;;;5068129;28;20025;-82
2024/01/27 08:21:50;;;;;;;8.57;2.25;;;;;;;;;;5069312;28;20602;-82
2024/01/27 08:24:16;;;;;;;5.78;2.25;;;;;;;;;;5070665;28;20107;-85
2024/01/27 08:26:42;;;;;;;7.53;1.92;;;;;;;;;;5067643;28;20028;-89
2024/01/27 08:29:08;;;;;;;6.43;2.30;;;;;;;;;;5070263;28;20040;-82
2024/01/27 08:31:35;;;;;;;7.28;2.70;;;;;;;;;;5071164;28;20055;-85
2024/01/27 08:34:01;;;;;;;6.95;2.33;;;;;;;;;;5069619;28;20025;-82
2024/01/27 08:36:27;;;;;;;7.20;2.40;;;;;;;;;;5070096;28;20400;-83
2024/01/27 08:38:53;;;;;;;12.02;2.42;;;;;;;;;;5070690;28;20029;-83
2024/01/27 08:41:19;;;;;;;5.72;2.50;;;;;;;;;;5068689;28;20078;-82
2024/01/27 08:43:45;;;;;;;14.25;2.60;;;;;;;;;;5069419;28;20041;-85
2024/01/27 08:46:13;;;;;;;5.80;2.70;;;;;;;;;;5070075;28;20366;-83
2024/01/27 08:48:41;;;;;;;7.70;2.47;;;;;;;;;;5057855;28;20020;-88
2024/01/27 08:51:09;;;;;;;4.53;2.30;;;;;;;;;;5067713;28;20066;-88
2024/01/27 08:53:35;;;;;;;7.78;2.65;;;;;;;;;;5065805;28;20431;-84
2024/01/27 08:56:01;;;;;;;13.93;2.40;;;;;;;;;;5067902;28;20028;-84
2024/01/27 08:58:27;;;;;;;6.68;2.38;;;;;;;;;;5069745;28;20583;-88
2024/01/27 09:00:53;;;;;;;8.73;2.53;;;;;;;;;;5070994;28;20488;-84
2024/01/27 09:03:22;;;;;;;10.45;2.60;;;;;;;;;;5083338;28;20017;-82
2024/01/27 09:05:48;;;;;;;7.43;2.13;;;;;;;;;;5094286;28;20037;-82
2024/01/27 09:08:15;;;;;;;10.80;2.78;;;;;;;;;;5092768;28;20024;-84
2024/01/27 09:10:41;;;;;;;3.92;2.13;;;;;;;;;;5084231;28;20029;-82
2024/01/27 09:13:08;;;;;;;8.95;2.35;;;;;;;;;;5068951;28;20030;-83
2024/01/27 09:15:34;;;;;;;7.07;2.30;;;;;;;;;;5071075;28;20403;-85
2024/01/27 09:18:00;;;;;;;7.75;2.33;;;;;;;;;;5069157;28;20480;-86
2024/01/27 09:20:26;;;;;;;8.82;2.35;;;;;;;;;;5067653;28;20056;-82
2024/01/27 09:22:52;;;;;;;7.53;2.33;;;;;;;;;;5068315;28;20028;-82
2024/01/27 09:25:18;;;;;;;8.48;2.65;;;;;;;;;;5067491;28;20032;-83
2024/01/27 09:27:44;;;;;;;10.70;2.63;;;;;;;;;;5061793;28;20047;-82
2024/01/27 09:30:10;;;;;;;8.25;2.65;;;;;;;;;;5068423;28;20043;-83
2024/01/27 09:32:36;;;;;;;3.88;2.20;;;;;;;;;;5070043;28;20099;-84
2024/01/27 09:35:02;;;;;;;7.88;2.42;;;;;;;;;;5067357;28;20119;-85
2024/01/27 09:37:28;;;;;;;7.05;2.25;;;;;;;;;;5070528;28;20024;-84
2024/01/27 09:39:54;;;;;;;5.60;2.65;;;;;;;;;;5070270;28;20028;-85
2024/01/27 09:42:21;;;;;;;7.95;2.80;;;;;;;;;;5070107;28;20028;-88
2024/01/27 09:44:49;;;;;;;9.65;2.60;;;;;;;;;;5068265;28;20497;-84
2024/01/27 09:47:15;;;;;;;4.88;2.42;;;;;;;;;;5068336;28;20048;-88
2024/01/27 09:49:42;;;;;;;8.02;2.70;;;;;;;;;;5069964;28;20033;-84
2024/01/27 09:52:09;;;;;;;7.78;2.40;;;;;;;;;;5068469;28;20066;-84
2024/01/27 09:54:36;;;;;;;6.57;2.50;;;;;;;;;;5070700;28;20095;-84
2024/01/27 09:57:02;;;;;;;10.02;2.60;;;;;;;;;;5069680;28;20453;-84
2024/01/27 09:59:29;;;;;;;6.80;2.67;;;;;;;;;;5069891;28;20130;-84
2024/01/27 10:01:57;;;;;;;10.45;3.35;;;;;;;;;;5069806;28;20108;-84
2024/01/27 10:04:23;;;;;;;5.85;2.90;;;;;;;;;;5069927;28;20043;-85
2024/01/27 10:06:50;;;;;;;7.88;2.63;;;;;;;;;;5070147;28;20052;-84
2024/01/27 10:09:17;;;;;;;7.15;2.40;;;;;;;;;;5069954;28;20485;-84
2024/01/27 10:11:46;;;;;;;8.82;2.17;;;;;;;;;;5069738;28;20389;-84
2024/01/27 10:14:12;;;;;;;6.15;2.10;;;;;;;;;;5068631;28;20081;-83
2024/01/27 10:16:45;;;;;;;10.73;2.70;;;;;;;;;;5070547;28;20029;-85
2024/01/27 10:19:21;;;;;;;12.95;2.83;;;;;;;;;;5068727;28;20374;-84
2024/01/27 10:21:47;;;;;;;5.97;2.42;;;;;;;;;;5069559;28;20381;-85
2024/01/27 10:24:13;;;;;;;9.93;2.50;;;;;;;;;;5069797;28;20039;-83
2024/01/27 10:26:39;;;;;;;5.30;2.22;;;;;;;;;;5070365;28;20024;-83
2024/01/27 10:29:05;;;;;;;5.13;2.65;;;;;;;;;;5069488;28;20032;-84
2024/01/27 10:31:38;;;;;;;7.68;2.65;;;;;;;;;;5069770;28;20498;-85
2024/01/27 10:34:04;;;;;;;4.47;2.33;;;;;;;;;;5070669;28;20024;-84
2024/01/27 10:36:44;;;;;;;8.10;2.60;;;;;;;;;;5069474;28;20086;-84
2024/01/27 10:39:20;;;;;;;6.75;3.00;;;;;;;;;;5070134;28;20024;-84
2024/01/27 10:41:46;;;;;;;10.18;3.47;;;;;;;;;;5069501;28;20017;-84
2024/01/27 10:44:17;;;;;;;13.45;3.17;;;;;;;;;;5070349;28;20033;-83
2024/01/27 10:46:46;;;;;;;8.30;2.90;;;;;;;;;;5070576;28;20022;-83
2024/01/27 10:49:14;;;;;;;9.38;2.72;;;;;;;;;;5068698;28;20029;-84
2024/01/27 10:51:43;;;;;;;8.20;3.03;;;;;;;;;;5070145;28;20016;-85
2024/01/27 10:54:10;;;;;;;10.02;2.70;;;;;;;;;;5069992;28;20056;-84
2024/01/27 10:56:38;;;;;;;10.60;3.17;;;;;;;;;;5069210;28;20099;-84
2024/01/27 10:59:05;;;;;;;8.07;3.00;;;;;;;;;;5069159;28;20488;-85
2024/01/27 11:01:34;;;;;;;7.63;3.72;;;;;;;;;;5069105;28;20100;-84
2024/01/27 11:04:03;;;;;;;10.00;3.30;;;;;;;;;;5068966;28;20097;-83
2024/01/27 11:06:30;;;;;;;7.22;3.30;;;;;;;;;;5069154;28;20091;-84
2024/01/27 11:08:56;;;;;;;5.82;3.03;;;;;;;;;;5067830;28;20082;-85
2024/01/27 11:11:22;;;;;;;7.93;2.80;;;;;;;;;;5068961;28;20074;-86
2024/01/27 11:13:50;;;;;;;8.40;2.95;;;;;;;;;;5069047;28;20028;-84
2024/01/27 11:16:17;;;;;;;5.95;2.50;;;;;;;;;;5069045;28;20039;-85
2024/01/27 11:18:44;;;;;;;8.05;2.40;;;;;;;;;;5070052;28;20045;-85
2024/01/27 11:21:14;;;;;;;8.82;2.65;;;;;;;;;;5069986;28;20057;-84
2024/01/27 11:23:40;;;;;;;20.35;2.78;;;;;;;;;;5069964;28;20033;-84
2024/01/27 11:26:07;;;;;;;8.10;2.50;;;;;;;;;;5069073;28;20021;-85
2024/01/27 11:28:33;;;;;;;5.45;2.40;;;;;;;;;;5068857;28;20044;-86
2024/01/27 11:31:03;;;;;;;8.32;2.58;;;;;;;;;;5068945;28;20028;-84
2024/01/27 11:33:29;;;;;;;6.70;2.08;;;;;;;;;;5069039;28;20032;-84
2024/01/27 11:36:04;;;;;;;6.38;3.17;;;;;;;;;;5068850;28;20032;-85
2024/01/27 11:38:31;;;;;;;8.35;2.50;;;;;;;;;;5068831;28;20020;-85
2024/01/27 11:40:57;;;;;;;6.57;2.65;;;;;;;;;;5068993;28;20473;-84
2024/01/27 11:43:23;;;;;;;5.82;2.40;;;;;;;;;;5069087;28;20493;-85
2024/01/27 11:46:02;;;;;;;7.63;2.28;;;;;;;;;;5069161;28;20121;-85
2024/01/27 11:48:31;;;;;;;6.10;2.20;;;;;;;;;;5069106;28;20078;-85
2024/01/27 11:51:07;;;;;;;5.25;2.10;;;;;;;;;;5067622;28;20024;-84
2024/01/27 11:53:33;;;;;;;5.75;1.98;;;;;;;;;;5069247;28;20024;-85
2024/01/27 11:56:01;;;;;;;7.18;2.30;;;;;;;;;;5069311;28;20082;-85
2024/01/27 11:58:27;;;;;;;5.30;2.20;;;;;;;;;;5071904;28;20120;-84
2024/01/27 12:00:53;;;;;;;6.10;2.28;;;;;;;;;;5073066;28;20052;-83
2024/01/27 12:03:19;;;;;;;7.65;2.30;;;;;;;;;;5084630;28;20040;-82
2024/01/27 12:05:45;;;;;;;5.15;2.20;;;;;;;;;;5094762;28;20017;-84
2024/01/27 12:08:11;;;;;;;8.63;2.35;;;;;;;;;;5095876;28;20012;-83
2024/01/27 12:10:38;;;;;;;5.07;2.20;;;;;;;;;;5088807;28;20031;-86
2024/01/27 12:13:04;;;;;;;5.57;2.78;;;;;;;;;;5074126;28;20519;-83
2024/01/27 12:15:30;;;;;;;7.18;3.05;;;;;;;;;;5072321;28;20557;-84
2024/01/27 12:17:56;;;;;;;5.68;2.22;;;;;;;;;;5072268;28;20053;-85
2024/01/27 12:20:23;;;;;;;7.95;2.53;;;;;;;;;;5072093;28;20063;-84
2024/01/27 12:22:50;;;;;;;6.85;2.45;;;;;;;;;;5072029;28;20032;-83
2024/01/27 12:25:17;;;;;;;5.70;2.53;;;;;;;;;;5072710;28;20020;-86
2024/01/27 12:27:44;;;;;;;6.35;2.40;;;;;;;;;;5072621;28;20421;-84
2024/01/27 12:30:10;;;;;;;8.68;2.40;;;;;;;;;;5071498;28;20102;-84
2024/01/27 12:32:36;;;;;;;5.75;2.60;;;;;;;;;;5071819;28;20032;-86
2024/01/27 12:35:06;;;;;;;8.77;2.58;;;;;;;;;;5071707;28;20021;-85
2024/01/27 12:37:32;;;;;;;8.50;2.10;;;;;;;;;;5071674;28;20020;-86
2024/01/27 12:39:58;;;;;;;7.47;2.53;;;;;;;;;;5071616;28;20028;-86
2024/01/27 12:42:24;;;;;;;8.15;2.75;;;;;;;;;;5071668;28;20130;-84
2024/01/27 12:44:50;;;;;;;11.13;2.58;;;;;;;;;;5071572;28;20389;-84
2024/01/27 12:47:16;;;;;;;6.80;2.58;;;;;;;;;;5071175;28;20025;-86
2024/01/27 12:49:42;;;;;;;6.65;2.70;;;;;;;;;;5071452;28;20025;-85
2024/01/27 12:52:08;;;;;;;4.88;2.38;;;;;;;;;;5071530;28;20028;-85
2024/01/27 12:54:34;;;;;;;9.15;3.13;;;;;;;;;;5071431;28;20110;-84
2024/01/27 12:57:01;;;;;;;6.57;2.13;;;;;;;;;;5071465;28;20029;-84
2024/01/27 12:59:28;;;;;;;4.63;2.28;;;;;;;;;;5071337;28;20046;-86
2024/01/27 13:01:54;;;;;;;6.40;2.85;;;;;;;;;;5071314;28;20032;-84
2024/01/27 13:04:20;;;;;;;7.28;2.20;;;;;;;;;;5070131;28;20036;-84
2024/01/27 13:06:46;;;;;;;7.80;2.13;;;;;;;;;;5071890;28;20024;-86
2024/01/27 13:09:13;;;;;;;5.20;2.10;;;;;;;;;;5068698;28;20550;-86
2024/01/27 13:11:39;;;;;;;7.43;2.53;;;;;;;;;;5071148;28;20071;-85
2024/01/27 13:14:06;;;;;;;5.97;1.90;;;;;;;;;;5071258;28;20078;-85
2024/01/27 13:16:32;;;;;;;7.45;2.20;;;;;;;;;;5069645;28;20493;-84
2024/01/27 13:18:58;;;;;;;10.15;3.05;;;;;;;;;;5070844;28;20123;-84
2024/01/27 13:21:24;;;;;;;7.63;2.30;;;;;;;;;;5069407;28;20025;-84
2024/01/27 13:23:52;;;;;;;8.65;2.45;;;;;;;;;;5071504;28;20033;-84
2024/01/27 13:26:18;;;;;;;9.45;2.55;;;;;;;;;;5071512;28;20024;-84
2024/01/27 13:28:48;;;;;;;9.02;2.45;;;;;;;;;;5070637;28;20032;-84
2024/01/27 13:31:14;;;;;;;8.13;2.55;;;;;;;;;;5069361;28;20029;-84
2024/01/27 13:33:40;;;;;;;7.45;2.42;;;;;;;;;;5069432;28;20074;-84
2024/01/27 13:36:06;;;;;;;10.55;2.33;;;;;;;;;;5070658;28;20033;-84
2024/01/27 13:38:33;;;;;;;6.65;2.20;;;;;;;;;;5069143;28;20016;-84
2024/01/27 13:40:59;;;;;;;7.53;2.78;;;;;;;;;;5070220;28;20024;-84
2024/01/27 13:43:25;;;;;;;9.52;2.65;;;;;;;;;;5070339;28;20086;-86
2024/01/27 13:45:54;;;;;;;6.80;2.47;;;;;;;;;;5070943;28;20031;-84
2024/01/27 13:48:20;;;;;;;5.65;2.20;;;;;;;;;;5071207;28;20021;-85
2024/01/27 13:50:46;;;;;;;5.22;1.90;;;;;;;;;;5070177;28;20107;-85
2024/01/27 13:53:12;;;;;;;4.35;2.08;;;;;;;;;;5069024;28;20396;-86
2024/01/27 13:55:40;;;;;;;7.45;2.20;;;;;;;;;;5070284;28;20021;-84
2024/01/27 13:58:06;;;;;;;6.90;2.65;;;;;;;;;;5070133;28;20067;-85
2024/01/27 14:00:34;;;;;;;7.70;2.10;;;;;;;;;;5070278;28;20430;-86
2024/01/27 14:03:00;;;;;;;6.07;2.10;;;;;;;;;;5070075;28;20108;-84
2024/01/27 14:05:26;;;;;;;5.40;1.70;;;;;;;;;;5068975;28;20119;-84
2024/01/27 14:07:52;;;;;;;8.00;2.20;;;;;;;;;;5070788;28;20028;-86
2024/01/27 14:10:18;;;;;;;6.25;2.35;;;;;;;;;;5069337;28;20544;-86
2024/01/27 14:12:44;;;;;;;5.38;2.13;;;;;;;;;;5068662;28;20115;-86
2024/01/27 14:15:10;;;;;;;7.78;2.25;;;;;;;;;;5069711;28;20029;-85
2024/01/27 14:17:36;;;;;;;7.10;2.13;;;;;;;;;;5069688;28;20021;-86
2024/01/27 14:20:03;;;;;;;7.63;2.13;;;;;;;;;;5069300;28;20024;-84
2024/01/27 14:22:29;;;;;;;6.15;1.98;;;;;;;;;;5069796;28;20051;-84
2024/01/27 14:24:56;;;;;;;5.53;2.10;;;;;;;;;;5069645;28;20400;-84
2024/01/27 14:27:25;;;;;;;5.75;2.05;;;;;;;;;;5069274;28;20032;-85
2024/01/27 14:29:57;;;;;;;8.23;2.60;;;;;;;;;;5068965;28;20036;-86
2024/01/27 14:32:23;;;;;;;4.93;1.90;;;;;;;;;;5070391;28;20060;-86
2024/01/27 14:34:50;;;;;;;8.02;2.13;;;;;;;;;;5070389;28;20048;-86
2024/01/27 14:37:16;;;;;;;5.45;2.20;;;;;;;;;;5069694;28;20035;-84